Terminal Aerodrome Forecast
Issued by NWS Shreveport, LA

Home | Current Version | Previous Version | Text Only | Print | Product List | Glossary On
Versions: 1 2 3 4 5 6 7 8 9 10 11 12 13 14 15 16 17
000
FTUS44 KSHV 260730 AAA
TAFLFK
TAF AMD
KLFK 260730Z 2608/2706 00000KT 1/2SM FG VV002
      TEMPO 2609/2612 36005KT 3SM BR BKN005
     FM261200 36006KT 3SM BR BKN015
     FM261500 01007KT P6SM BKN020
     FM262000 04006KT P6SM SCT040=

USA.gov is the U.S. government's official web portal to all federal, state and local government web resources and services.